Lady Goodgirl — 9H8679 — position and weather

sailwx.info

Track history (hours):
 
Tides and Currents Weather Stations Pressure Air Temp Water Temp Dewpoint Dewpoint Depression Visibility Wind Speed Wind Dir Waves Ship Positions

Lady Goodgirl

Last reported at 2014-Sep-20 18:20 UTC. Time now 2014-Sep-21 18:11 UTC.
Position N 40°34' E 014°14'.

Length 38 m; draft 3 m.

Type: Pleasure craft. MMSI: 256670000.

Date/timePositionNaut miles runAvg speedWind from/ knotsBaromVisibWave heightAir tempDewpointWater temp
2014-Sep-20 18:20N 40°34' E 014°14'0 0.0
2014-Sep-20 17:31N 40°34' E 014°14'16 0.4
2014-Sep-18 20:08N 40°50' E 014°14'0 0.0
2014-Sep-18 19:32N 40°50' E 014°14'0 0.0
2014-Sep-18 18:26N 40°50' E 014°14'0 0.0
2014-Sep-18 15:26N 40°50' E 014°14'0 0.0
2014-Sep-18 14:29N 40°50' E 014°14'0 0.0
2014-Sep-18 13:29N 40°50' E 014°14'0 0.0
2014-Sep-17 18:10N 40°50' E 014°14'0 0.0
2014-Sep-17 16:28N 40°50' E 014°14'2 2.4
2014-Sep-17 15:34N 40°47' E 014°14'1110.9
2014-Sep-17 14:33N 40°37' E 014°16'  
2014-Sep-14 12:31N 40°33' E 014°15'0 0.0
2014-Sep-14 11:31N 40°33' E 014°15'5 1.6
2014-Sep-14 08:30N 40°36' E 014°19'4 3.3
2014-Sep-14 07:23N 40°38' E 014°23'0 0.0
2014-Sep-14 06:23N 40°38' E 014°23'0 0.0
2014-Sep-14 04:26N 40°38' E 014°23'0 0.0
2014-Sep-14 03:14N 40°38' E 014°23'0 0.0
2014-Sep-14 02:32N 40°38' E 014°23'0 0.0
2014-Sep-14 01:32N 40°38' E 014°23'0 0.0
2014-Sep-13 21:31N 40°38' E 014°23'0 0.0
2014-Sep-13 20:31N 40°38' E 014°23'0 0.0
2014-Sep-13 19:31N 40°38' E 014°23'0 0.0
2014-Sep-13 18:31N 40°38' E 014°23'1 0.5
2014-Sep-13 17:34N 40°39' E 014°23'9 8.6
2014-Sep-13 16:28N 40°29' E 014°21'  
Track history (hours):
 
Tides and Currents Weather Stations Pressure Air Temp Water Temp Dewpoint Dewpoint Depression Visibility Wind Speed Wind Dir Waves Ship Positions

Lady Goodgirl

Last reported at 2014-Sep-20 18:20 UTC. Time now 2014-Sep-21 18:11 UTC.
Position N 40°34' E 014°14'.

Length 38 m; draft 3 m.

Type: Pleasure craft. MMSI: 256670000.

Date/timePositionNaut miles runAvg speedWind from/ knotsBaromVisibWave heightAir tempDewpointWater temp
2014-Sep-20 18:20N 40°34' E 014°14'0 0.0
2014-Sep-20 17:31N 40°34' E 014°14'16 0.4
2014-Sep-18 20:08N 40°50' E 014°14'0 0.0
2014-Sep-18 19:32N 40°50' E 014°14'0 0.0
2014-Sep-18 18:26N 40°50' E 014°14'0 0.0
2014-Sep-18 15:26N 40°50' E 014°14'0 0.0
2014-Sep-18 14:29N 40°50' E 014°14'0 0.0
2014-Sep-18 13:29N 40°50' E 014°14'0 0.0
2014-Sep-17 18:10N 40°50' E 014°14'0 0.0
2014-Sep-17 16:28N 40°50' E 014°14'2 2.4
2014-Sep-17 15:34N 40°47' E 014°14'1110.9
2014-Sep-17 14:33N 40°37' E 014°16'  
2014-Sep-14 12:31N 40°33' E 014°15'0 0.0
2014-Sep-14 11:31N 40°33' E 014°15'5 1.6
2014-Sep-14 08:30N 40°36' E 014°19'4 3.3
2014-Sep-14 07:23N 40°38' E 014°23'0 0.0
2014-Sep-14 06:23N 40°38' E 014°23'0 0.0
2014-Sep-14 04:26N 40°38' E 014°23'0 0.0
2014-Sep-14 03:14N 40°38' E 014°23'0 0.0
2014-Sep-14 02:32N 40°38' E 014°23'0 0.0
2014-Sep-14 01:32N 40°38' E 014°23'0 0.0
2014-Sep-13 21:31N 40°38' E 014°23'0 0.0
2014-Sep-13 20:31N 40°38' E 014°23'0 0.0
2014-Sep-13 19:31N 40°38' E 014°23'0 0.0
2014-Sep-13 18:31N 40°38' E 014°23'1 0.5
2014-Sep-13 17:34N 40°39' E 014°23'9 8.6
2014-Sep-13 16:28N 40°29' E 014°21'  

Dump ship's entire track history